Time;durP1;ratioP1;P1;durP2;ratioP2;P2;SDS_P1;SDS_P2;PMS_P1;PMS_P2;Temp;Humidity;BMP_temperature;BMP_pressure;BME280_temperature;BME280_humidity;BME280_pressure;Samples;Min_cycle;Max_cycle;Signal;HPM_P1;HPM_P2
2021/12/11 00:02:09;;;;;;;7.78;4.65;;;20.10;46.80;;;;;;5031054;28;20136;-68
2021/12/11 00:04:36;;;;;;;8.90;4.15;;;20.10;46.70;;;;;;5031097;28;20148;-68
2021/12/11 00:07:04;;;;;;;6.90;4.45;;;20.10;46.70;;;;;;5032127;28;20052;-67
2021/12/11 00:09:32;;;;;;;7.95;4.70;;;20.10;46.70;;;;;;5031643;28;20038;-67
2021/12/11 00:11:59;;;;;;;;;;;20.10;46.70;;;;;;5030937;28;20049;-67
2021/12/11 00:14:27;;;;;;;6.78;4.18;;;20.00;46.60;;;;;;5030794;28;19925;-67
2021/12/11 00:16:53;;;;;;;7.15;4.57;;;20.00;46.70;;;;;;5029680;28;20432;-67
2021/12/11 00:19:24;;;;;;;5.93;4.20;;;20.00;46.60;;;;;;5031097;28;20042;-67
2021/12/11 00:21:50;;;;;;;5.90;4.75;;;20.00;46.50;;;;;;5030978;28;20046;-67
2021/12/11 00:24:16;;;;;;;6.65;4.43;;;20.00;46.40;;;;;;5030218;28;20482;-68
2021/12/11 00:26:44;;;;;;;5.55;3.95;;;20.00;46.40;;;;;;5030379;28;20046;-68
2021/12/11 00:29:11;;;;;;;6.97;4.32;;;20.00;46.40;;;;;;5033680;28;20114;-68
2021/12/11 00:31:45;;;;;;;8.13;4.60;;;20.00;46.50;;;;;;5035862;28;20110;-68
2021/12/11 00:34:11;;;;;;;6.50;4.22;;;19.90;46.40;;;;;;5035409;28;20052;-68
2021/12/11 00:36:37;;;;;;;6.80;4.15;;;19.90;46.30;;;;;;5035031;28;20053;-68
2021/12/11 00:39:08;;;;;;;5.88;4.18;;;19.90;46.30;;;;;;5033926;28;20042;-68
2021/12/11 00:41:34;;;;;;;7.05;4.28;;;19.90;47.10;;;;;;5035602;28;20038;-68
2021/12/11 00:44:01;;;;;;;7.10;4.07;;;19.90;46.30;;;;;;5034689;28;20041;-68
2021/12/11 00:46:27;;;;;;;6.32;4.10;;;19.90;46.30;;;;;;5034358;28;20065;-68
2021/12/11 00:48:53;;;;;;;5.78;4.00;;;19.90;46.30;;;;;;5035055;28;20045;-68
2021/12/11 00:51:20;;;;;;;7.53;4.40;;;19.90;46.30;;;;;;5033590;28;20049;-67
2021/12/11 00:54:06;;;;;;;6.45;3.95;;;19.80;46.20;;;;;;5033723;28;20049;-68
2021/12/11 00:56:34;;;;;;;6.82;4.13;;;19.80;46.20;;;;;;5034185;28;20052;-68
2021/12/11 00:59:02;;;;;;;8.57;4.88;;;19.80;46.20;;;;;;5034037;28;20432;-67
2021/12/11 01:01:43;;;;;;;6.50;4.05;;;19.80;46.10;;;;;;5034165;28;20484;-68
2021/12/11 01:04:12;;;;;;;5.82;3.95;;;19.80;46.10;;;;;;5033672;28;20084;-67
2021/12/11 01:06:52;;;;;;;6.25;4.18;;;19.80;46.10;;;;;;5034201;28;20485;-68
2021/12/11 01:09:20;;;;;;;7.55;4.28;;;19.80;46.10;;;;;;5035080;28;20049;-67
2021/12/11 01:11:53;;;;;;;;;;;19.80;46.10;;;;;;5034502;28;20137;-68
2021/12/11 01:14:28;;;;;;;6.15;4.28;;;19.70;46.00;;;;;;5035202;28;19920;-68
2021/12/11 01:16:58;;;;;;;7.25;4.20;;;19.70;46.10;;;;;;5033164;28;20107;-68
2021/12/11 01:19:25;;;;;;;7.32;4.60;;;19.70;46.00;;;;;;5032855;28;20103;-68
2021/12/11 01:21:59;;;;;;;6.45;4.30;;;19.70;46.10;;;;;;5033432;28;20060;-68
2021/12/11 01:24:42;;;;;;;6.85;4.35;;;19.70;46.00;;;;;;5033799;28;20485;-68
2021/12/11 01:27:10;;;;;;;6.38;4.25;;;19.70;45.90;;;;;;5032531;28;20092;-68
2021/12/11 01:29:36;;;;;;;6.57;4.35;;;19.70;46.00;;;;;;5033295;28;20057;-68
2021/12/11 01:32:02;;;;;;;6.57;4.43;;;19.70;46.00;;;;;;5033083;28;20048;-68
2021/12/11 01:34:28;;;;;;;5.55;3.97;;;19.70;46.00;;;;;;5033829;28;20068;-68
2021/12/11 01:36:53;;;;;;;6.72;3.88;;;19.60;45.90;;;;;;5034366;28;20042;-67
2021/12/11 01:39:22;;;;;;;6.25;4.25;;;19.60;45.80;;;;;;5033726;28;20079;-67
2021/12/11 01:41:47;;;;;;;7.95;4.03;;;19.60;45.80;;;;;;5032245;28;20057;-67
2021/12/11 01:44:19;;;;;;;6.53;3.83;;;19.60;45.90;;;;;;5034244;28;20075;-67
2021/12/11 01:46:45;;;;;;;6.82;4.10;;;19.60;45.80;;;;;;5033514;28;20041;-67
2021/12/11 01:49:16;;;;;;;6.10;4.03;;;19.60;45.80;;;;;;5034276;28;20042;-67
2021/12/11 01:51:52;;;;;;;6.22;4.20;;;19.60;45.80;;;;;;5034140;28;20045;-67
2021/12/11 01:54:30;;;;;;;6.80;3.90;;;19.60;45.80;;;;;;5031985;28;20099;-67
2021/12/11 01:57:01;;;;;;;5.75;3.92;;;19.60;45.90;;;;;;5033805;28;20129;-67
2021/12/11 01:59:35;;;;;;;6.80;4.05;;;19.60;45.90;;;;;;5033178;28;20053;-67
2021/12/11 02:02:10;;;;;;;7.38;4.25;;;19.60;45.80;;;;;;5032976;28;20448;-67
2021/12/11 02:04:42;;;;;;;7.03;4.10;;;19.50;45.80;;;;;;5034034;28;20099;-67
2021/12/11 02:07:14;;;;;;;5.75;3.67;;;19.50;45.80;;;;;;5032655;28;20129;-67
2021/12/11 02:09:40;;;;;;;5.43;3.47;;;19.50;45.80;;;;;;5031939;28;20045;-67
2021/12/11 02:12:11;;;;;;;6.20;4.15;;;19.50;45.80;;;;;;5033882;28;20097;-67
2021/12/11 02:14:41;;;;;;;5.47;3.67;;;19.50;45.90;;;;;;5033092;28;20053;-67
2021/12/11 02:17:18;;;;;;;6.45;3.90;;;19.50;45.90;;;;;;5032356;28;20041;-67
2021/12/11 02:19:43;;;;;;;5.13;3.45;;;19.50;45.90;;;;;;5031989;28;20041;-67
2021/12/11 02:22:12;;;;;;;6.25;3.88;;;19.50;45.90;;;;;;5031806;28;20041;-67
2021/12/11 02:24:47;;;;;;;5.57;3.65;;;19.50;45.90;;;;;;5032651;28;20103;-68
2021/12/11 02:27:17;;;;;;;4.93;3.25;;;19.40;45.90;;;;;;5031159;28;20124;-68
2021/12/11 02:29:49;;;;;;;6.18;3.50;;;19.40;45.90;;;;;;5031551;28;20099;-68
2021/12/11 02:32:39;;;;;;;6.15;3.80;;;19.40;45.90;;;;;;5033369;28;20053;-68
2021/12/11 02:35:33;;;;;;;5.45;3.65;;;19.40;46.00;;;;;;5032208;28;20042;-68
2021/12/11 02:38:11;;;;;;;7.18;3.70;;;19.40;46.00;;;;;;5027979;28;20060;-68
2021/12/11 02:40:42;;;;;;;6.57;3.70;;;19.40;46.00;;;;;;5033523;28;20103;-67
2021/12/11 02:43:25;;;;;;;5.35;3.40;;;19.40;45.90;;;;;;5031334;28;20085;-67
2021/12/11 02:45:56;;;;;;;5.45;3.58;;;19.40;46.00;;;;;;5032058;28;20069;-68
2021/12/11 02:48:26;;;;;;;4.88;3.50;;;19.40;46.00;;;;;;5032224;28;20128;-68
2021/12/11 02:51:07;;;;;;;4.93;3.47;;;19.40;46.00;;;;;;5030816;28;20054;-67
2021/12/11 02:53:39;;;;;;;5.80;3.53;;;19.50;46.00;;;;;;5014790;28;20053;-68
2021/12/11 02:56:14;;;;;;;6.90;3.88;;;19.50;46.00;;;;;;5013077;28;20125;-68
2021/12/11 02:58:42;;;;;;;5.70;3.20;;;19.50;46.00;;;;;;5011162;28;20049;-68
2021/12/11 03:01:28;;;;;;;5.10;3.15;;;19.50;46.00;;;;;;5018522;28;20048;-68
2021/12/11 03:04:13;;;;;;;4.97;3.38;;;19.50;46.00;;;;;;5031814;28;20490;-68
2021/12/11 03:06:43;;;;;;;5.32;3.58;;;19.50;45.90;;;;;;5030146;28;20114;-68
2021/12/11 03:09:09;;;;;;;5.57;3.17;;;19.50;45.90;;;;;;5031732;28;20497;-68
2021/12/11 03:11:35;;;;;;;5.03;3.42;;;19.50;45.90;;;;;;5031843;28;20073;-68
2021/12/11 03:14:03;;;;;;;6.03;3.90;;;19.50;45.90;;;;;;5032955;28;20073;-68
2021/12/11 03:16:30;;;;;;;;;;;19.50;45.80;;;;;;5031955;28;20125;-68
2021/12/11 03:18:56;;;;;;;5.63;3.35;;;19.50;45.90;;;;;;5030434;28;19927;-68
2021/12/11 03:21:21;;;;;;;6.25;3.10;;;19.50;45.90;;;;;;5032747;28;20046;-68
2021/12/11 03:23:47;;;;;;;4.68;3.13;;;19.50;45.90;;;;;;5030970;28;20049;-68
2021/12/11 03:26:13;;;;;;;4.82;3.10;;;19.50;45.80;;;;;;5032084;28;20046;-68
2021/12/11 03:28:38;;;;;;;6.07;3.15;;;19.60;45.90;;;;;;5031349;28;20044;-68
2021/12/11 03:31:04;;;;;;;5.18;3.42;;;19.50;45.70;;;;;;5031055;28;20077;-68
2021/12/11 03:33:38;;;;;;;5.53;3.38;;;19.60;45.80;;;;;;5031915;28;20049;-69
2021/12/11 03:36:05;;;;;;;5.38;3.20;;;19.60;45.80;;;;;;5031064;28;20049;-69
2021/12/11 03:38:32;;;;;;;5.28;3.05;;;19.60;45.80;;;;;;5032412;28;20080;-69
2021/12/11 03:40:57;;;;;;;4.72;2.95;;;19.60;45.70;;;;;;5030343;28;20049;-68
2021/12/11 03:43:23;;;;;;;6.13;3.45;;;19.60;45.70;;;;;;5031355;28;20051;-69
2021/12/11 03:45:52;;;;;;;4.72;2.80;;;19.60;45.70;;;;;;5030893;28;20405;-69
2021/12/11 03:48:25;;;;;;;4.97;3.28;;;19.60;45.60;;;;;;5031815;28;20056;-68
2021/12/11 03:50:51;;;;;;;4.97;3.03;;;19.60;45.50;;;;;;5030734;28;20041;-68
2021/12/11 03:53:18;;;;;;;5.50;3.30;;;19.60;45.60;;;;;;5031935;28;20064;-68
2021/12/11 03:55:47;;;;;;;4.35;2.85;;;19.60;45.50;;;;;;5030841;28;20041;-68
2021/12/11 03:58:13;;;;;;;4.90;3.10;;;19.70;45.50;;;;;;5031175;28;20124;-68
2021/12/11 04:00:42;;;;;;;4.47;3.10;;;19.60;45.40;;;;;;5031411;28;20141;-68
2021/12/11 04:03:08;;;;;;;4.47;3.20;;;19.60;45.40;;;;;;5033011;28;20049;-68
2021/12/11 04:05:35;;;;;;;4.75;2.92;;;19.70;45.50;;;;;;5036301;28;20092;-68
2021/12/11 04:08:01;;;;;;;5.43;2.90;;;19.70;45.50;;;;;;5034082;28;20053;-68
2021/12/11 04:10:27;;;;;;;5.75;3.45;;;19.70;45.40;;;;;;5035187;28;20049;-68
2021/12/11 04:12:58;;;;;;;4.47;3.13;;;19.70;45.50;;;;;;5034535;28;20041;-68
2021/12/11 04:15:23;;;;;;;4.47;2.90;;;19.70;45.40;;;;;;5034337;28;20053;-68
2021/12/11 04:17:49;;;;;;;4.90;2.88;;;19.70;45.40;;;;;;5035695;28;20103;-68
2021/12/11 04:20:17;;;;;;;4.00;2.42;;;19.70;45.40;;;;;;5035758;28;20041;-68
2021/12/11 04:22:43;;;;;;;5.75;3.05;;;19.70;45.40;;;;;;5032579;28;20045;-68
2021/12/11 04:25:09;;;;;;;4.18;2.75;;;19.70;45.40;;;;;;5034773;28;20048;-68
2021/12/11 04:27:35;;;;;;;5.32;2.90;;;19.70;45.40;;;;;;5034838;28;20072;-68
2021/12/11 04:30:04;;;;;;;4.32;2.85;;;19.70;45.30;;;;;;5033617;28;20045;-68
2021/12/11 04:32:32;;;;;;;4.03;2.55;;;19.70;45.40;;;;;;5034498;28;20053;-68
2021/12/11 04:34:58;;;;;;;4.70;2.67;;;19.70;45.30;;;;;;5035574;28;20072;-68
2021/12/11 04:37:25;;;;;;;5.05;2.70;;;19.70;45.30;;;;;;5033534;28;20445;-68
2021/12/11 04:39:57;;;;;;;4.88;3.00;;;19.70;45.30;;;;;;5035532;28;20048;-68
2021/12/11 04:45:14;;;;;;;5.32;2.90;;;19.80;45.40;;;;;;5034568;28;20045;-68
2021/12/11 04:48:05;;;;;;;6.32;3.17;;;19.80;45.40;;;;;;5033907;28;20401;-67
2021/12/11 04:50:42;;;;;;;4.30;2.65;;;19.80;45.40;;;;;;5033062;28;20057;-67
2021/12/11 04:53:23;;;;;;;5.15;2.83;;;19.80;45.40;;;;;;5035644;28;20045;-67
2021/12/11 05:06:30;;;;;;;5.13;2.78;;;19.80;45.40;;;;;;5012648;28;20049;-68
2021/12/11 05:09:15;;;;;;;4.53;2.90;;;19.80;45.30;;;;;;5012646;28;20489;-68
2021/12/11 05:11:54;;;;;;;4.85;2.60;;;19.80;45.20;;;;;;5014316;28;20545;-67
2021/12/11 05:14:21;;;;;;;3.75;2.42;;;19.80;45.20;;;;;;5015213;28;20092;-68
2021/12/11 05:16:46;;;;;;;4.15;2.65;;;19.80;45.20;;;;;;5013656;28;20050;-68
2021/12/11 05:19:12;;;;;;;6.00;3.17;;;19.80;45.20;;;;;;5012989;28;20057;-68
2021/12/11 05:21:38;;;;;;;4.53;2.88;;;19.80;45.20;;;;;;5013820;28;20124;-68
2021/12/11 05:24:04;;;;;;;5.75;2.95;;;19.80;45.20;;;;;;5013810;28;20061;-68
2021/12/11 05:26:30;;;;;;;4.40;2.78;;;19.90;45.20;;;;;;5013046;28;20053;-68
2021/12/11 05:28:56;;;;;;;3.70;2.50;;;19.80;45.10;;;;;;5013541;28;20052;-68
2021/12/11 05:31:21;;;;;;;4.38;2.78;;;19.90;45.10;;;;;;5013667;28;20136;-68
2021/12/11 05:33:47;;;;;;;4.55;2.83;;;19.90;45.20;;;;;;5012835;28;20046;-68
2021/12/11 05:36:15;;;;;;;5.00;2.90;;;19.90;45.20;;;;;;5013826;28;20041;-68
2021/12/11 05:38:41;;;;;;;4.53;2.90;;;19.90;45.10;;;;;;5013460;28;20402;-68
2021/12/11 05:41:10;;;;;;;4.43;3.00;;;19.90;45.20;;;;;;5013715;28;20486;-68
2021/12/11 05:43:36;;;;;;;4.05;2.70;;;19.90;45.20;;;;;;5013279;28;20046;-68
2021/12/11 05:46:02;;;;;;;4.72;2.53;;;19.90;45.10;;;;;;5012683;28;20041;-68
2021/12/11 05:48:28;;;;;;;4.15;2.67;;;19.90;45.10;;;;;;5013534;28;20151;-68
2021/12/11 05:50:56;;;;;;;3.95;2.63;;;19.90;45.10;;;;;;5014489;28;20506;-68
2021/12/11 05:53:21;;;;;;;4.78;2.88;;;19.90;45.10;;;;;;5027092;28;20481;-68
2021/12/11 05:55:48;;;;;;;4.03;2.53;;;19.90;45.10;;;;;;5034033;28;20056;-68
2021/12/11 05:58:22;;;;;;;4.45;2.67;;;19.90;45.80;;;;;;5033681;28;20099;-68
2021/12/11 06:00:48;;;;;;;5.28;2.70;;;19.90;45.00;;;;;;5032017;28;20042;-68
2021/12/11 06:03:13;;;;;;;5.20;2.97;;;19.90;45.00;;;;;;5033973;28;20150;-68
2021/12/11 06:05:39;;;;;;;4.35;2.83;;;19.90;45.00;;;;;;5034130;28;20073;-68
2021/12/11 06:08:06;;;;;;;3.30;2.35;;;19.90;45.00;;;;;;5033658;28;20142;-68
2021/12/11 06:10:31;;;;;;;4.22;2.70;;;19.90;45.00;;;;;;5033939;28;20072;-67
2021/12/11 06:12:58;;;;;;;4.65;2.70;;;19.90;44.90;;;;;;5032397;28;20127;-68
2021/12/11 06:15:23;;;;;;;5.35;3.13;;;19.90;45.00;;;;;;5031712;28;20045;-68
2021/12/11 06:17:49;;;;;;;3.78;2.30;;;20.00;45.00;;;;;;5032058;28;20064;-68
2021/12/11 06:20:17;;;;;;;4.30;2.50;;;20.00;45.10;;;;;;5032523;28;20056;-68
2021/12/11 06:22:43;;;;;;;3.20;2.20;;;20.00;45.00;;;;;;5031500;28;20568;-68
2021/12/11 06:25:29;;;;;;;4.55;2.58;;;20.00;44.90;;;;;;5031780;28;20140;-68
2021/12/11 06:27:54;;;;;;;4.43;2.80;;;20.00;44.90;;;;;;5031465;28;20486;-69
2021/12/11 06:30:21;;;;;;;5.25;3.20;;;20.00;45.00;;;;;;5033703;28;20041;-68
2021/12/11 06:32:47;;;;;;;4.30;2.70;;;20.00;44.90;;;;;;5031872;28;20056;-68
2021/12/11 06:35:44;;;;;;;5.05;2.80;;;19.90;44.80;;;;;;5031506;28;20053;-68
2021/12/11 06:38:10;;;;;;;4.65;2.90;;;20.00;44.90;;;;;;5030033;28;20065;-68
2021/12/11 06:40:36;;;;;;;4.47;2.67;;;20.00;44.90;;;;;;5032267;28;20589;-68
2021/12/11 06:43:02;;;;;;;4.45;2.60;;;20.00;44.90;;;;;;5031151;28;20046;-69
2021/12/11 06:45:28;;;;;;;3.88;2.50;;;20.00;44.90;;;;;;5033523;28;20049;-68
2021/12/11 06:47:54;;;;;;;4.38;2.63;;;20.00;44.80;;;;;;5031639;28;20045;-68
2021/12/11 06:50:19;;;;;;;5.65;2.95;;;20.00;44.80;;;;;;5030991;28;20052;-67
2021/12/11 06:52:47;;;;;;;4.80;2.92;;;20.00;44.90;;;;;;5031906;28;20045;-66
2021/12/11 06:55:13;;;;;;;13.38;3.80;;;20.00;44.80;;;;;;5031743;28;20053;-66
2021/12/11 06:57:38;;;;;;;6.57;3.00;;;20.00;44.70;;;;;;5031147;28;20455;-66
2021/12/11 07:00:04;;;;;;;4.50;2.80;;;20.00;44.70;;;;;;5032838;28;20091;-66
2021/12/11 07:02:30;;;;;;;6.05;2.92;;;20.00;44.80;;;;;;5031674;28;20077;-66
2021/12/11 07:04:55;;;;;;;5.55;3.00;;;20.00;44.80;;;;;;5031791;28;20139;-66
2021/12/11 07:07:25;;;;;;;6.75;2.75;;;20.00;44.80;;;;;;5031763;28;20473;-66
2021/12/11 07:09:51;;;;;;;7.15;3.08;;;20.00;44.80;;;;;;5031316;28;20045;-66
2021/12/11 07:12:16;;;;;;;4.30;2.47;;;20.00;44.90;;;;;;5032437;28;20046;-66
2021/12/11 07:14:42;;;;;;;6.25;2.92;;;20.00;44.90;;;;;;5031341;28;20478;-66
2021/12/11 07:17:07;;;;;;;5.07;3.00;;;20.00;45.00;;;;;;5031870;28;20508;-65
2021/12/11 07:19:33;;;;;;;7.25;2.78;;;20.00;45.00;;;;;;5032519;28;20099;-65
2021/12/11 07:21:58;;;;;;;5.05;2.63;;;20.00;45.10;;;;;;5031619;28;20122;-66
2021/12/11 07:24:30;;;;;;;6.30;2.67;;;20.00;45.10;;;;;;5030685;28;20835;-65
2021/12/11 07:26:55;;;;;;;4.70;2.67;;;20.00;45.10;;;;;;5020809;28;20053;-66
2021/12/11 07:29:21;;;;;;;4.60;2.50;;;20.00;45.20;;;;;;5011741;28;20054;-65
2021/12/11 07:31:47;;;;;;;9.32;2.70;;;20.00;45.40;;;;;;5011940;28;20460;-64
2021/12/11 07:34:13;;;;;;;8.02;2.83;;;20.00;45.50;;;;;;5012681;28;20480;-66
2021/12/11 07:36:39;;;;;;;4.55;2.42;;;20.10;45.70;;;;;;5010742;28;20069;-65
2021/12/11 07:39:07;;;;;;;5.13;2.50;;;20.00;45.70;;;;;;5010019;28;20124;-67
2021/12/11 07:41:33;;;;;;;6.03;2.92;;;20.10;46.00;;;;;;5011872;28;20050;-67
2021/12/11 07:43:59;;;;;;;5.63;2.53;;;20.10;46.10;;;;;;5017796;28;20092;-68
2021/12/11 07:46:25;;;;;;;4.72;3.05;;;20.10;46.10;;;;;;5026185;28;20041;-69
2021/12/11 07:48:51;;;;;;;4.97;2.80;;;20.10;46.20;;;;;;5031818;28;20486;-70
2021/12/11 07:51:17;;;;;;;4.80;2.45;;;20.10;46.40;;;;;;5031464;28;20060;-69
2021/12/11 07:53:42;;;;;;;5.70;2.80;;;20.10;46.40;;;;;;5030010;28;20037;-70
2021/12/11 07:56:08;;;;;;;6.57;2.95;;;20.10;46.60;;;;;;5032530;28;20041;-65
2021/12/11 07:58:34;;;;;;;4.57;2.50;;;20.10;46.70;;;;;;5030793;28;20041;-67
2021/12/11 08:01:00;;;;;;;5.25;2.88;;;20.10;46.70;;;;;;5030174;28;20076;-69
2021/12/11 08:03:26;;;;;;;4.13;2.45;;;20.10;46.80;;;;;;5030967;28;20085;-69
2021/12/11 08:05:52;;;;;;;4.07;2.50;;;20.10;46.90;;;;;;5030958;28;20049;-69
2021/12/11 08:08:18;;;;;;;5.22;2.65;;;20.10;46.90;;;;;;5030301;28;20447;-71
2021/12/11 08:10:45;;;;;;;4.85;2.60;;;20.10;47.00;;;;;;5030796;28;20069;-68
2021/12/11 08:13:11;;;;;;;4.20;2.35;;;20.20;47.10;;;;;;5030944;28;20659;-69
2021/12/11 08:15:37;;;;;;;4.68;2.88;;;20.20;47.20;;;;;;5030563;28;20057;-69
2021/12/11 08:18:04;;;;;;;6.22;2.60;;;20.20;47.30;;;;;;5030798;28;20176;-67
2021/12/11 08:20:30;;;;;;;4.93;2.25;;;20.20;47.40;;;;;;5031365;28;20052;-68
2021/12/11 08:22:56;;;;;;;4.43;2.80;;;20.20;47.30;;;;;;5030869;28;20123;-67
2021/12/11 08:25:22;;;;;;;4.82;2.72;;;20.20;47.40;;;;;;5032480;28;20073;-65
2021/12/11 08:27:48;;;;;;;4.55;2.30;;;20.20;47.50;;;;;;5031213;28;20033;-65
2021/12/11 08:30:14;;;;;;;6.95;2.88;;;20.20;47.40;;;;;;5030549;28;20041;-64
2021/12/11 08:32:40;;;;;;;4.90;2.80;;;20.20;47.30;;;;;;5032150;28;20041;-64
2021/12/11 08:35:07;;;;;;;7.03;2.70;;;20.20;47.30;;;;;;5030624;28;20038;-64
2021/12/11 08:37:33;;;;;;;4.10;2.53;;;20.20;47.20;;;;;;5030671;28;20044;-64
2021/12/11 08:39:58;;;;;;;5.45;2.70;;;20.20;47.20;;;;;;5031972;28;20049;-61
2021/12/11 08:42:25;;;;;;;4.35;2.85;;;20.20;47.10;;;;;;5031221;28;20041;-61
2021/12/11 08:44:57;;;;;;;5.25;3.00;;;20.20;47.10;;;;;;5031429;28;20044;-63
2021/12/11 08:47:23;;;;;;;6.85;3.10;;;20.20;47.00;;;;;;5030607;28;20374;-63
2021/12/11 08:49:48;;;;;;;4.10;2.50;;;20.20;46.90;;;;;;5031980;28;20749;-63
2021/12/11 08:52:29;;;;;;;4.30;2.50;;;20.20;46.90;;;;;;5035354;28;20136;-63
2021/12/11 08:54:56;;;;;;;4.90;2.70;;;20.20;46.70;;;;;;5035343;28;20045;-63
2021/12/11 08:57:25;;;;;;;4.80;2.65;;;20.20;46.80;;;;;;5033180;28;20049;-68
2021/12/11 08:59:57;;;;;;;5.78;3.00;;;20.30;46.70;;;;;;5023605;28;20042;-65
2021/12/11 09:02:32;;;;;;;4.22;2.33;;;20.30;46.80;;;;;;5015549;28;20058;-65
2021/12/11 09:05:14;;;;;;;7.05;3.15;;;20.30;47.00;;;;;;5032006;28;20045;-64
2021/12/11 09:07:45;;;;;;;3.85;2.38;;;20.30;46.70;;;;;;5033426;28;20563;-64
2021/12/11 09:10:13;;;;;;;5.63;2.75;;;20.30;46.90;;;;;;5034701;28;20087;-66
2021/12/11 09:12:47;;;;;;;6.55;2.75;;;20.40;47.10;;;;;;5035253;28;20046;-65
2021/12/11 09:15:28;;;;;;;3.53;2.05;;;20.30;47.10;;;;;;5035166;28;20456;-65
2021/12/11 09:17:56;;;;;;;5.20;3.00;;;20.30;47.20;;;;;;5032676;28;20452;-65
2021/12/11 09:20:27;;;;;;;8.95;2.80;;;20.40;47.20;;;;;;5034987;28;20083;-65
2021/12/11 09:23:12;;;;;;;5.40;2.80;;;20.40;47.30;;;;;;5050006;28;20095;-65
2021/12/11 09:26:00;;;;;;;5.38;2.83;;;20.40;47.30;;;;;;5034270;28;20469;-66
2021/12/11 09:28:35;;;;;;;4.33;2.80;;;20.40;47.30;;;;;;5029435;28;20046;-65
2021/12/11 09:31:04;;;;;;;6.35;2.78;;;20.40;47.30;;;;;;5020288;28;20313;-64
2021/12/11 09:33:33;;;;;;;4.15;2.78;;;20.50;47.50;;;;;;5018541;28;20083;-65
2021/12/11 09:36:09;;;;;;;4.75;2.47;;;20.40;47.60;;;;;;5017283;28;20034;-64
2021/12/11 09:38:37;;;;;;;5.53;2.97;;;20.50;47.90;;;;;;5035356;28;20038;-64
2021/12/11 09:41:21;;;;;;;6.38;2.95;;;20.50;48.00;;;;;;5027642;28;20400;-63
2021/12/11 09:43:58;;;;;;;9.55;3.20;;;20.50;48.10;;;;;;5022508;28;20088;-64
2021/12/11 09:46:26;;;;;;;5.57;3.05;;;20.50;48.10;;;;;;5024468;28;20100;-64
2021/12/11 09:48:52;;;;;;;;;;;20.50;48.10;;;;;;5026600;28;20044;-65
2021/12/11 09:51:21;;;;;;;4.45;2.85;;;20.50;48.10;;;;;;5024664;28;20370;-64
2021/12/11 09:53:51;;;;;;;5.22;3.03;;;20.50;48.10;;;;;;5020035;28;20502;-64
2021/12/11 09:56:24;;;;;;;5.05;2.92;;;20.50;48.20;;;;;;5014720;28;20050;-65
2021/12/11 09:58:50;;;;;;;4.20;2.72;;;20.50;48.30;;;;;;5015586;28;20497;-65
2021/12/11 10:01:27;;;;;;;5.30;2.67;;;20.60;48.40;;;;;;5017974;28;20091;-65
2021/12/11 10:04:10;;;;;;;5.57;3.03;;;20.50;48.40;;;;;;5018151;28;20058;-65
2021/12/11 10:06:42;;;;;;;4.45;2.92;;;20.50;48.40;;;;;;5013713;28;20068;-67
2021/12/11 10:09:18;;;;;;;4.63;2.67;;;20.50;48.50;;;;;;5014469;28;20379;-64
2021/12/11 10:11:50;;;;;;;7.93;3.15;;;20.60;48.50;;;;;;5012419;28;20128;-65
2021/12/11 10:14:17;;;;;;;4.95;3.20;;;20.60;48.60;;;;;;5013372;28;20049;-61
2021/12/11 10:16:46;;;;;;;5.57;3.10;;;20.60;48.60;;;;;;5019684;28;20037;-60
2021/12/11 10:19:13;;;;;;;5.05;2.80;;;20.60;48.60;;;;;;5029176;28;20041;-61
2021/12/11 10:21:44;;;;;;;6.65;2.95;;;20.60;48.80;;;;;;5013463;28;20482;-63
2021/12/11 10:24:12;;;;;;;6.80;3.30;;;20.60;49.00;;;;;;5013040;28;20057;-64
2021/12/11 10:26:38;;;;;;;4.65;2.55;;;20.60;48.90;;;;;;5014138;28;20037;-63
2021/12/11 10:29:07;;;;;;;6.10;3.30;;;20.60;48.90;;;;;;5012890;28;20045;-63
2021/12/11 10:31:40;;;;;;;5.18;2.85;;;20.60;49.00;;;;;;5012546;28;20076;-63
2021/12/11 10:34:08;;;;;;;5.38;3.17;;;20.60;49.10;;;;;;5011734;28;20049;-62
2021/12/11 10:36:38;;;;;;;5.07;3.00;;;20.70;49.80;;;;;;5012511;28;20068;-59
2021/12/11 10:39:05;;;;;;;7.35;3.20;;;20.60;49.10;;;;;;5012169;28;20041;-63
2021/12/11 10:41:31;;;;;;;6.90;3.00;;;20.60;49.00;;;;;;5028378;28;20042;-61
2021/12/11 10:43:59;;;;;;;5.78;3.33;;;20.60;49.10;;;;;;5013368;28;20050;-60
2021/12/11 10:46:28;;;;;;;8.85;3.38;;;20.70;49.30;;;;;;5013414;28;20402;-62
2021/12/11 10:48:54;;;;;;;5.85;2.63;;;20.70;49.40;;;;;;5022534;28;20045;-62
2021/12/11 10:51:23;;;;;;;8.38;3.40;;;20.70;49.40;;;;;;5031934;28;20056;-62
2021/12/11 10:53:48;;;;;;;7.35;3.28;;;20.70;49.50;;;;;;5033233;28;20052;-62
2021/12/11 10:56:15;;;;;;;5.53;2.95;;;20.70;49.50;;;;;;5032104;28;20124;-61
2021/12/11 10:58:44;;;;;;;6.60;3.10;;;20.70;49.60;;;;;;5025224;28;20092;-61
2021/12/11 11:01:13;;;;;;;5.78;2.80;;;20.70;49.60;;;;;;5021905;28;20422;-61
2021/12/11 11:03:41;;;;;;;7.80;3.22;;;20.70;49.60;;;;;;5021813;28;20147;-62
2021/12/11 11:06:07;;;;;;;9.15;2.88;;;20.70;49.40;;;;;;5023710;28;20417;-60
2021/12/11 11:08:33;;;;;;;5.90;2.78;;;20.70;49.30;;;;;;5021959;28;20115;-61
2021/12/11 11:11:05;;;;;;;6.15;2.80;;;20.70;49.20;;;;;;5021610;28;20436;-62
2021/12/11 11:13:30;;;;;;;6.85;3.08;;;20.70;49.30;;;;;;5023242;28;20512;-62
2021/12/11 11:15:56;;;;;;;7.32;3.15;;;20.70;49.40;;;;;;5023573;28;20069;-63
2021/12/11 11:18:22;;;;;;;7.75;3.20;;;20.70;49.40;;;;;;5021400;28;20389;-62
2021/12/11 11:20:54;;;;;;;6.60;3.03;;;20.70;49.60;;;;;;5021180;28;20069;-64
2021/12/11 11:23:20;;;;;;;5.43;2.70;;;20.70;49.60;;;;;;5021225;28;20391;-63
2021/12/11 11:25:48;;;;;;;5.25;3.00;;;20.70;49.70;;;;;;5029930;28;20128;-64
2021/12/11 11:28:15;;;;;;;6.97;2.85;;;20.70;49.60;;;;;;5031660;28;20041;-65
2021/12/11 11:30:44;;;;;;;6.70;3.15;;;20.70;49.50;;;;;;5028995;28;20470;-60
2021/12/11 11:33:09;;;;;;;5.38;3.17;;;20.70;49.20;;;;;;5027964;28;20635;-66
2021/12/11 11:35:42;;;;;;;7.05;3.25;;;20.70;49.10;;;;;;5028076;28;20057;-64
2021/12/11 11:38:11;;;;;;;6.65;3.03;;;20.70;49.10;;;;;;5020423;28;20129;-62
2021/12/11 11:40:37;;;;;;;6.47;2.53;;;20.70;49.10;;;;;;5023299;28;20037;-61
2021/12/11 11:43:04;;;;;;;6.03;3.35;;;20.70;49.00;;;;;;5016033;28;20045;-61
2021/12/11 11:45:29;;;;;;;7.43;2.95;;;20.70;49.10;;;;;;5028531;28;20042;-62
2021/12/11 11:47:55;;;;;;;5.75;2.72;;;20.70;49.20;;;;;;5032432;28;20125;-61
2021/12/11 11:50:22;;;;;;;7.75;2.90;;;20.70;49.20;;;;;;5029235;28;20099;-62
2021/12/11 11:52:48;;;;;;;7.40;3.05;;;20.70;49.30;;;;;;5021911;28;20118;-59
2021/12/11 11:55:26;;;;;;;5.45;2.78;;;20.70;49.30;;;;;;5017875;28;20558;-60
2021/12/11 11:57:52;;;;;;;6.32;2.92;;;20.70;50.00;;;;;;5012326;28;20042;-59
2021/12/11 12:00:23;;;;;;;6.53;2.80;;;20.70;49.30;;;;;;5023722;28;20099;-59
2021/12/11 12:02:49;;;;;;;6.20;2.40;;;20.70;49.30;;;;;;5031496;28;20490;-61
2021/12/11 12:05:14;;;;;;;6.05;3.00;;;20.70;49.40;;;;;;5029183;28;20049;-64
2021/12/11 12:07:40;;;;;;;6.45;3.08;;;20.70;49.40;;;;;;5021560;28;20053;-63
2021/12/11 12:10:12;;;;;;;6.00;2.72;;;20.70;49.40;;;;;;5028819;28;20482;-64
2021/12/11 12:12:37;;;;;;;8.18;3.25;;;20.70;49.50;;;;;;5019618;28;20109;-64
2021/12/11 12:15:07;;;;;;;5.40;2.75;;;20.70;49.60;;;;;;5027662;28;20174;-64
2021/12/11 12:17:32;;;;;;;5.75;3.20;;;20.70;49.60;;;;;;5016562;28;20041;-64
2021/12/11 12:19:58;;;;;;;5.68;2.80;;;20.70;49.60;;;;;;5020218;28;20118;-64
2021/12/11 12:22:25;;;;;;;4.95;2.80;;;20.70;49.70;;;;;;5022925;28;20486;-65
2021/12/11 12:24:51;;;;;;;6.38;3.42;;;20.70;49.60;;;;;;5024638;28;20056;-65
2021/12/11 12:27:18;;;;;;;7.40;3.20;;;20.70;49.60;;;;;;5024231;28;20076;-65
2021/12/11 12:29:44;;;;;;;7.03;3.10;;;20.70;49.60;;;;;;5045473;28;20488;-65
2021/12/11 12:32:16;;;;;;;9.15;3.00;;;20.70;49.60;;;;;;5035851;28;20450;-65
2021/12/11 12:34:42;;;;;;;7.57;3.22;;;20.70;49.40;;;;;;5033871;28;20084;-67
2021/12/11 12:37:07;;;;;;;6.30;3.10;;;20.70;49.30;;;;;;5016000;28;20034;-64
2021/12/11 12:39:38;;;;;;;10.20;3.50;;;20.70;49.40;;;;;;5014616;28;20112;-65
2021/12/11 12:42:17;;;;;;;9.18;3.08;;;20.70;49.70;;;;;;5024142;28;20045;-62
2021/12/11 12:44:48;;;;;;;8.85;3.45;;;20.80;49.70;;;;;;5035421;28;20053;-61
2021/12/11 12:47:20;;;;;;;68.90;25.20;;;20.80;49.80;;;;;;5034105;28;20484;-62
2021/12/11 12:49:48;;;;;;;23.27;9.15;;;20.80;51.00;;;;;;5034440;28;20121;-62
2021/12/11 12:52:20;;;;;;;25.27;9.77;;;20.80;51.50;;;;;;5035540;28;20049;-61
2021/12/11 12:54:46;;;;;;;16.88;6.38;;;20.90;52.10;;;;;;5034602;28;20107;-65
2021/12/11 12:57:18;;;;;;;12.65;5.85;;;20.90;51.60;;;;;;5034016;28;20060;-63
2021/12/11 12:59:59;;;;;;;17.83;6.40;;;20.90;51.20;;;;;;5030595;28;20053;-63
2021/12/11 13:02:26;;;;;;;13.18;5.75;;;20.90;51.10;;;;;;5033028;28;20505;-63
2021/12/11 13:04:58;;;;;;;11.88;4.88;;;20.90;50.90;;;;;;5034479;28;20045;-63
2021/12/11 13:07:24;;;;;;;11.15;4.85;;;21.00;50.90;;;;;;5034675;28;20463;-61
2021/12/11 13:09:57;;;;;;;21.65;8.52;;;21.00;50.90;;;;;;5033738;28;20132;-64
2021/12/11 13:12:33;;;;;;;22.42;9.02;;;21.00;51.20;;;;;;5033058;28;20096;-66